createdAt,value
2022-11-30T00:01:17.745Z,3.50
2022-11-30T00:03:46.273Z,3.50
2022-11-30T00:06:15.828Z,3.40
2022-11-30T00:08:45.143Z,3.40
2022-11-30T00:11:13.840Z,3.40
2022-11-30T00:13:42.063Z,3.40
2022-11-30T00:16:11.364Z,3.40
2022-11-30T00:18:41.201Z,3.50
2022-11-30T00:21:10.133Z,3.40
2022-11-30T00:23:39.151Z,3.40
2022-11-30T00:26:09.313Z,3.40
2022-11-30T00:28:38.193Z,3.40
2022-11-30T00:31:08.169Z,3.40
2022-11-30T00:33:36.844Z,3.40
2022-11-30T00:36:07.295Z,3.40
2022-11-30T00:38:35.902Z,3.40
2022-11-30T00:41:04.175Z,3.40
2022-11-30T00:43:32.668Z,3.40
2022-11-30T00:46:00.861Z,3.40
2022-11-30T00:48:28.992Z,3.40
2022-11-30T00:50:57.131Z,3.40
2022-11-30T00:53:26.669Z,3.40
2022-11-30T00:55:54.929Z,3.40
2022-11-30T00:58:22.978Z,3.40
2022-11-30T01:00:51.093Z,3.40
2022-11-30T01:03:19.212Z,3.40
2022-11-30T01:05:47.418Z,3.40
2022-11-30T01:08:15.780Z,3.40
2022-11-30T01:10:45.576Z,3.40
2022-11-30T01:13:14.191Z,3.40
2022-11-30T01:15:43.250Z,3.40
2022-11-30T01:18:11.605Z,3.40
2022-11-30T01:20:41.506Z,3.40
2022-11-30T01:23:09.857Z,3.40
2022-11-30T01:25:39.905Z,3.40
2022-11-30T01:28:10.491Z,3.30
2022-11-30T01:30:38.636Z,3.30
2022-11-30T01:33:07.188Z,3.30
2022-11-30T01:35:35.313Z,3.30
2022-11-30T01:38:03.389Z,3.30
2022-11-30T01:40:31.654Z,3.30
2022-11-30T01:42:59.744Z,3.30
2022-11-30T01:45:29.584Z,3.30
2022-11-30T01:47:58.451Z,3.40
2022-11-30T01:50:29.036Z,3.30
2022-11-30T01:53:01.093Z,3.30
2022-11-30T01:55:31.088Z,3.40
2022-11-30T01:58:01.200Z,3.30
2022-11-30T02:00:30.798Z,3.30
2022-11-30T02:03:01.905Z,3.30
2022-11-30T02:05:30.498Z,3.20
2022-11-30T02:07:58.858Z,3.20
2022-11-30T02:10:28.960Z,3.20
2022-11-30T02:13:12.050Z,3.20
2022-11-30T02:15:46.192Z,3.20
2022-11-30T02:18:16.272Z,3.20
2022-11-30T02:20:50.368Z,3.10
2022-11-30T02:23:28.812Z,3.10
2022-11-30T02:26:03.612Z,3.10
2022-11-30T02:28:48.493Z,3.10
2022-11-30T02:31:20.185Z,3.10
2022-11-30T02:33:49.871Z,3.10
2022-11-30T02:36:18.754Z,3.10
2022-11-30T02:38:47.359Z,3.10
2022-11-30T02:41:15.883Z,3.10
2022-11-30T02:43:45.920Z,3.20
2022-11-30T02:46:19.221Z,3.30
2022-11-30T02:48:53.912Z,3.40
2022-11-30T02:51:24.230Z,3.40
2022-11-30T02:53:55.578Z,3.50
2022-11-30T02:56:25.120Z,3.50
2022-11-30T02:58:54.644Z,3.50
2022-11-30T03:01:22.851Z,3.50
2022-11-30T03:03:51.113Z,3.50
2022-11-30T03:06:22.200Z,3.50
2022-11-30T03:08:50.432Z,3.50
2022-11-30T03:11:18.553Z,3.50
2022-11-30T03:13:49.058Z,3.40
2022-11-30T03:16:18.860Z,3.40
2022-11-30T03:18:47.109Z,3.30
2022-11-30T03:21:15.421Z,3.30
2022-11-30T03:23:43.688Z,3.30
2022-11-30T03:26:11.764Z,3.30
2022-11-30T03:28:39.856Z,3.20
2022-11-30T03:31:07.947Z,3.20
2022-11-30T03:33:37.506Z,3.20
2022-11-30T03:36:06.896Z,3.20
2022-11-30T03:38:35.232Z,3.20
2022-11-30T03:41:04.319Z,3.20
2022-11-30T03:43:32.860Z,3.20
2022-11-30T03:46:01.258Z,3.20
2022-11-30T03:48:29.613Z,3.20
2022-11-30T03:50:59.234Z,3.20
2022-11-30T03:53:27.480Z,3.20
2022-11-30T03:55:56.732Z,3.20
2022-11-30T03:58:25.471Z,3.20
2022-11-30T04:00:59.707Z,3.20
2022-11-30T04:03:27.850Z,3.20
2022-11-30T04:05:56.140Z,3.20
2022-11-30T04:08:26.048Z,3.20
2022-11-30T04:10:54.480Z,3.20
2022-11-30T04:13:22.856Z,3.20
2022-11-30T04:15:51.989Z,3.20
2022-11-30T04:18:23.874Z,3.20
2022-11-30T04:20:52.144Z,3.20
2022-11-30T04:23:20.670Z,3.20
2022-11-30T04:25:50.434Z,3.20
2022-11-30T04:28:21.705Z,3.20
2022-11-30T04:30:49.852Z,3.20
2022-11-30T04:33:18.328Z,3.20
2022-11-30T04:35:47.572Z,3.20
2022-11-30T04:38:17.993Z,3.20
2022-11-30T04:40:46.475Z,3.20
2022-11-30T04:43:16.350Z,3.20
2022-11-30T04:45:45.313Z,3.20
2022-11-30T04:48:13.820Z,3.20
2022-11-30T04:50:42.071Z,3.20
2022-11-30T04:53:10.138Z,3.20
2022-11-30T04:55:38.795Z,3.20
2022-11-30T04:58:07.153Z,3.20
2022-11-30T05:00:37.174Z,3.20
2022-11-30T05:03:05.476Z,3.10
2022-11-30T05:05:33.820Z,3.10
2022-11-30T05:08:02.039Z,3.10
2022-11-30T05:10:30.516Z,3.10
2022-11-30T05:12:58.751Z,3.10
2022-11-30T05:15:26.893Z,3.10
2022-11-30T05:17:59.322Z,3.00
2022-11-30T05:20:27.478Z,3.00
2022-11-30T05:22:55.671Z,3.00
2022-11-30T05:25:23.797Z,3.00
2022-11-30T05:27:52.012Z,3.00
2022-11-30T05:30:20.119Z,3.00
2022-11-30T05:32:48.216Z,3.00
2022-11-30T05:35:17.973Z,2.90
2022-11-30T05:37:46.083Z,2.90
2022-11-30T05:40:14.744Z,2.90
2022-11-30T05:42:42.812Z,2.90
2022-11-30T05:45:11.577Z,2.80
2022-11-30T05:47:39.900Z,2.80
2022-11-30T05:50:08.712Z,2.80
2022-11-30T05:52:38.384Z,2.80
2022-11-30T05:55:07.093Z,2.80
2022-11-30T05:57:37.139Z,2.80
2022-11-30T06:00:05.463Z,2.80
2022-11-30T06:02:33.619Z,2.70
2022-11-30T06:05:02.001Z,2.70
2022-11-30T06:07:30.161Z,2.70
2022-11-30T06:10:05.769Z,2.70
2022-11-30T06:12:34.125Z,2.70
2022-11-30T06:15:02.181Z,2.70
2022-11-30T06:17:30.345Z,2.70
2022-11-30T06:19:58.433Z,2.80
2022-11-30T06:22:26.557Z,2.80
2022-11-30T06:24:54.618Z,2.80
2022-11-30T06:27:24.132Z,2.80
2022-11-30T06:29:52.436Z,2.70
2022-11-30T06:32:23.339Z,2.70
2022-11-30T06:34:51.440Z,2.60
2022-11-30T06:37:19.831Z,2.60
2022-11-30T06:40:05.860Z,2.60
2022-11-30T06:42:36.648Z,2.60
2022-11-30T06:45:05.387Z,2.60
2022-11-30T06:47:33.836Z,2.60
2022-11-30T06:50:01.930Z,2.60
2022-11-30T06:52:31.118Z,2.60
2022-11-30T06:54:59.309Z,2.50
2022-11-30T06:57:28.336Z,2.50
2022-11-30T06:59:58.297Z,2.50
2022-11-30T07:02:26.450Z,2.50
2022-11-30T07:04:55.685Z,2.60
2022-11-30T07:07:23.939Z,2.60
2022-11-30T07:09:52.253Z,2.60
2022-11-30T07:12:20.442Z,2.60
2022-11-30T07:14:52.463Z,2.50
2022-11-30T07:17:24.570Z,2.50
2022-11-30T07:19:52.613Z,2.50
2022-11-30T07:22:20.839Z,2.50
2022-11-30T07:25:06.252Z,2.50
2022-11-30T07:27:34.319Z,2.50
2022-11-30T07:30:02.493Z,2.50
2022-11-30T07:32:32.077Z,2.60
2022-11-30T07:35:00.423Z,2.60
2022-11-30T07:37:28.548Z,2.60
2022-11-30T07:39:56.921Z,2.60
2022-11-30T07:42:25.190Z,2.60
2022-11-30T07:44:58.421Z,2.60
2022-11-30T07:47:26.931Z,2.60
2022-11-30T07:49:56.471Z,2.60
2022-11-30T07:52:24.914Z,2.60
2022-11-30T07:54:53.021Z,2.50
2022-11-30T07:57:21.229Z,2.50
2022-11-30T07:59:49.666Z,2.40
2022-11-30T08:02:18.080Z,2.40
2022-11-30T08:04:46.837Z,2.40
2022-11-30T08:07:16.563Z,2.40
2022-11-30T08:09:46.041Z,2.40
2022-11-30T08:12:14.264Z,2.40
2022-11-30T08:15:17.618Z,2.50
2022-11-30T08:17:31.709Z,2.50
2022-11-30T08:19:59.804Z,2.50
2022-11-30T08:22:29.515Z,2.70
2022-11-30T08:24:57.623Z,2.70
2022-11-30T08:27:25.878Z,2.90
2022-11-30T08:29:53.969Z,3.00
2022-11-30T08:32:22.099Z,3.10
2022-11-30T08:34:50.487Z,3.20
2022-11-30T08:37:18.881Z,3.20
2022-11-30T08:39:48.467Z,3.20
2022-11-30T08:42:16.757Z,3.20
2022-11-30T08:44:44.867Z,3.20
2022-11-30T08:47:13.157Z,3.30
2022-11-30T08:49:41.308Z,3.30
2022-11-30T08:52:17.488Z,3.40
2022-11-30T08:54:47.601Z,3.40
2022-11-30T08:57:17.817Z,3.40
2022-11-30T08:59:46.275Z,3.40
2022-11-30T09:02:17.561Z,3.30
2022-11-30T09:04:47.440Z,3.40
2022-11-30T09:07:15.713Z,3.30
2022-11-30T09:09:44.015Z,3.40
2022-11-30T09:12:12.263Z,3.50
2022-11-30T09:14:42.345Z,3.50
2022-11-30T09:17:10.618Z,3.60
2022-11-30T09:19:38.795Z,3.60
2022-11-30T09:22:08.696Z,3.60
2022-11-30T09:24:38.330Z,3.70
2022-11-30T09:27:06.432Z,3.70
2022-11-30T09:29:34.714Z,3.70
2022-11-30T09:32:04.590Z,3.80
2022-11-30T09:34:34.356Z,3.80
2022-11-30T09:37:02.708Z,3.90
2022-11-30T09:39:30.928Z,4.40
2022-11-30T09:42:15.162Z,4.00
2022-11-30T09:44:48.103Z,4.00
2022-11-30T09:47:27.781Z,4.00
2022-11-30T09:49:59.409Z,4.00
2022-11-30T09:52:30.009Z,4.00
2022-11-30T09:54:58.124Z,4.00
2022-11-30T09:57:30.615Z,3.90
2022-11-30T09:59:59.254Z,4.00
2022-11-30T10:02:31.371Z,4.00
2022-11-30T10:05:00.129Z,4.00
2022-11-30T10:07:37.958Z,4.00
2022-11-30T10:13:06.767Z,3.80
2022-11-30T10:15:42.255Z,3.70
2022-11-30T10:18:16.026Z,3.70
2022-11-30T10:20:53.282Z,3.70
2022-11-30T10:23:27.192Z,3.70
2022-11-30T10:25:57.227Z,3.70
2022-11-30T10:28:46.956Z,3.80
2022-11-30T10:31:16.954Z,3.80
2022-11-30T10:33:47.617Z,3.90
2022-11-30T10:36:18.288Z,4.10
2022-11-30T10:38:48.176Z,4.20
2022-11-30T10:41:20.177Z,4.30
2022-11-30T10:43:50.177Z,4.30
2022-11-30T10:46:21.104Z,4.50
2022-11-30T10:48:52.948Z,4.60
2022-11-30T10:51:21.677Z,4.70
2022-11-30T10:53:49.896Z,4.70
2022-11-30T10:56:18.295Z,4.70
2022-11-30T10:58:52.151Z,4.70
2022-11-30T11:01:34.248Z,4.60
2022-11-30T11:04:11.805Z,4.50
2022-11-30T11:06:43.481Z,4.40
2022-11-30T11:09:30.088Z,4.40
2022-11-30T11:11:59.506Z,4.30
2022-11-30T11:14:30.402Z,4.20
2022-11-30T11:17:01.810Z,4.20
2022-11-30T11:19:36.361Z,4.20
2022-11-30T11:22:06.072Z,4.30
2022-11-30T11:24:35.185Z,4.40
2022-11-30T11:27:03.300Z,4.40
2022-11-30T11:29:32.612Z,4.50
2022-11-30T11:32:07.622Z,4.50
2022-11-30T11:34:37.652Z,4.40
2022-11-30T11:37:06.453Z,4.40
2022-11-30T11:39:34.772Z,4.30
2022-11-30T11:42:06.727Z,4.30
2022-11-30T11:44:37.545Z,4.40
2022-11-30T11:47:08.190Z,4.40
2022-11-30T11:49:38.115Z,4.30
2022-11-30T11:52:07.157Z,4.30
2022-11-30T11:54:38.076Z,4.30
2022-11-30T11:57:09.746Z,4.30
2022-11-30T11:59:40.517Z,4.30
2022-11-30T12:02:15.457Z,4.20
2022-11-30T12:04:49.875Z,4.20
2022-11-30T12:07:24.186Z,4.20
2022-11-30T12:09:56.613Z,4.20
2022-11-30T12:12:24.904Z,4.30
2022-11-30T12:14:53.448Z,4.30
2022-11-30T12:17:27.835Z,4.30
2022-11-30T12:20:03.867Z,4.30
2022-11-30T12:22:45.348Z,4.30
2022-11-30T12:25:24.252Z,4.20
2022-11-30T12:27:56.564Z,4.20
2022-11-30T12:30:26.590Z,4.20
2022-11-30T12:33:04.874Z,4.10
2022-11-30T12:35:38.491Z,4.20
2022-11-30T12:38:11.507Z,4.10
2022-11-30T12:40:44.808Z,4.10
2022-11-30T12:43:16.363Z,4.20
2022-11-30T12:45:44.874Z,4.20
2022-11-30T12:48:20.076Z,4.10
2022-11-30T12:50:53.932Z,4.00
2022-11-30T12:53:25.127Z,4.00
2022-11-30T12:55:59.897Z,3.90
2022-11-30T12:58:33.811Z,3.90
2022-11-30T13:01:07.263Z,3.80
2022-11-30T13:03:53.220Z,3.80
2022-11-30T13:06:24.621Z,3.70
2022-11-30T13:08:57.280Z,3.60
2022-11-30T13:11:29.072Z,3.50
2022-11-30T13:13:58.696Z,3.40
2022-11-30T13:16:27.644Z,3.40
2022-11-30T13:18:58.840Z,3.30
2022-11-30T13:21:30.936Z,3.30
2022-11-30T13:24:02.537Z,3.30
2022-11-30T13:26:32.736Z,3.20
2022-11-30T13:29:18.015Z,3.10
2022-11-30T13:31:49.514Z,3.00
2022-11-30T13:34:27.222Z,2.90
2022-11-30T13:37:07.921Z,2.90
2022-11-30T13:39:45.907Z,2.80
2022-11-30T13:42:26.363Z,2.70
2022-11-30T13:44:54.800Z,2.70
2022-11-30T13:47:28.489Z,2.60
2022-11-30T13:49:57.416Z,2.50
2022-11-30T13:52:40.487Z,2.50
2022-11-30T13:55:23.413Z,2.30
2022-11-30T13:58:06.547Z,2.20
2022-11-30T14:00:48.297Z,2.10
2022-11-30T14:03:25.487Z,2.10
2022-11-30T14:05:57.361Z,2.00
2022-11-30T14:08:35.737Z,2.10
2022-11-30T14:11:22.361Z,2.00
2022-11-30T14:13:51.905Z,1.90
2022-11-30T14:16:25.336Z,1.90
2022-11-30T14:18:53.612Z,1.90
2022-11-30T14:21:25.368Z,1.80
2022-11-30T14:23:56.747Z,1.70
2022-11-30T14:26:26.744Z,1.70
2022-11-30T14:28:59.428Z,1.60
2022-11-30T14:31:31.847Z,1.60
2022-11-30T14:34:02.247Z,1.60
2022-11-30T14:36:34.984Z,1.50
2022-11-30T14:39:03.464Z,1.50
2022-11-30T14:41:34.226Z,1.40
2022-11-30T14:44:11.840Z,1.40
2022-11-30T14:46:40.267Z,1.30
2022-11-30T14:49:13.729Z,1.30
2022-11-30T14:51:42.559Z,1.30
2022-11-30T14:54:16.376Z,1.20
2022-11-30T14:56:47.125Z,1.20
2022-11-30T14:59:24.612Z,1.00
2022-11-30T15:01:56.580Z,1.00
2022-11-30T15:04:27.572Z,1.00
2022-11-30T15:06:56.100Z,0.90
2022-11-30T15:09:26.426Z,0.70
2022-11-30T15:11:54.923Z,0.80
2022-11-30T15:14:24.951Z,0.80
2022-11-30T15:16:57.260Z,0.80
2022-11-30T15:19:27.597Z,0.70
2022-11-30T15:21:56.238Z,0.70
2022-11-30T15:24:25.084Z,0.60
2022-11-30T15:26:56.340Z,0.60
2022-11-30T15:29:30.121Z,0.60
2022-11-30T15:31:59.421Z,0.50
2022-11-30T15:34:31.356Z,0.40
2022-11-30T15:37:00.096Z,0.40
2022-11-30T15:39:29.759Z,0.40
2022-11-30T15:41:59.139Z,0.40
2022-11-30T15:44:39.582Z,0.30
2022-11-30T15:47:08.490Z,0.30
2022-11-30T15:49:37.329Z,0.30
2022-11-30T15:52:09.172Z,0.30
2022-11-30T15:54:43.823Z,0.20
2022-11-30T15:57:11.907Z,0.20
2022-11-30T15:59:41.617Z,0.20
2022-11-30T16:02:28.091Z,0.20
2022-11-30T16:05:13.612Z,0.20
2022-11-30T16:07:49.421Z,0.20
2022-11-30T16:10:20.004Z,0.10
2022-11-30T16:12:49.830Z,0.10
2022-11-30T16:15:20.877Z,0.10
2022-11-30T16:17:48.907Z,0.00
2022-11-30T16:20:17.418Z,0.00
2022-11-30T16:22:46.249Z,0.00
2022-11-30T16:25:14.971Z,0.00
2022-11-30T16:27:43.544Z,-0.10
2022-11-30T16:30:14.906Z,-0.20
2022-11-30T16:32:44.601Z,-0.20
2022-11-30T16:35:18.476Z,-0.20
2022-11-30T16:37:46.858Z,-0.20
2022-11-30T16:40:15.465Z,-0.20
2022-11-30T16:42:43.605Z,-0.20
2022-11-30T16:45:14.717Z,-0.20
2022-11-30T16:47:45.169Z,-0.30
2022-11-30T16:50:15.095Z,-0.30
2022-11-30T16:52:43.681Z,-0.20
2022-11-30T16:55:13.988Z,-0.30
2022-11-30T16:57:42.247Z,-0.30
2022-11-30T17:00:11.315Z,-0.30
2022-11-30T17:02:40.886Z,-0.40
2022-11-30T17:05:11.849Z,-0.30
2022-11-30T17:07:40.074Z,-0.30
2022-11-30T17:10:09.112Z,-0.40
2022-11-30T17:12:37.368Z,-0.40
2022-11-30T17:15:05.865Z,-0.50
2022-11-30T17:17:36.715Z,-0.40
2022-11-30T17:20:06.048Z,-0.50
2022-11-30T17:22:37.785Z,-0.50
2022-11-30T17:25:07.154Z,-0.50
2022-11-30T17:27:35.240Z,-0.50
2022-11-30T17:30:05.511Z,-0.50
2022-11-30T17:32:36.437Z,-0.50
2022-11-30T17:35:04.759Z,-0.60
2022-11-30T17:37:33.079Z,-0.60
2022-11-30T17:40:04.045Z,-0.50
2022-11-30T17:42:32.139Z,-0.60
2022-11-30T17:45:00.411Z,-0.60
2022-11-30T17:47:28.526Z,-0.70
2022-11-30T17:49:56.831Z,-0.70
2022-11-30T17:52:25.130Z,-0.60
2022-11-30T17:54:53.200Z,-0.70
2022-11-30T17:57:22.752Z,-0.70
2022-11-30T17:59:51.074Z,-0.70
2022-11-30T18:02:19.380Z,-0.70
2022-11-30T18:04:47.757Z,-0.80
2022-11-30T18:07:16.819Z,-0.80
2022-11-30T18:09:44.922Z,-0.90
2022-11-30T18:12:15.708Z,-0.90
2022-11-30T18:14:45.707Z,-0.80
2022-11-30T18:17:13.989Z,-0.70
2022-11-30T18:19:45.129Z,-0.60
2022-11-30T18:22:13.372Z,-0.70
2022-11-30T18:24:41.412Z,-0.70
2022-11-30T18:27:12.292Z,-0.70
2022-11-30T18:29:40.504Z,-0.60
2022-11-30T18:32:10.660Z,-0.70
2022-11-30T18:34:38.766Z,-0.70
2022-11-30T18:37:07.047Z,-0.80
2022-11-30T18:39:35.337Z,-0.90
2022-11-30T18:42:03.444Z,-0.80
2022-11-30T18:44:31.682Z,-0.80
2022-11-30T18:46:59.748Z,-0.80
2022-11-30T18:49:29.420Z,-0.90
2022-11-30T18:51:57.460Z,-0.90
2022-11-30T18:54:25.921Z,-0.80
2022-11-30T18:56:54.281Z,-0.90
2022-11-30T18:59:22.549Z,-1.00
2022-11-30T19:01:52.073Z,-1.00
2022-11-30T19:04:20.462Z,-1.00
2022-11-30T19:06:50.102Z,-1.00
2022-11-30T19:09:20.177Z,-1.00
2022-11-30T19:11:48.257Z,-1.10
2022-11-30T19:14:16.889Z,-1.10
2022-11-30T19:16:46.554Z,-1.10
2022-11-30T19:19:15.197Z,-1.20
2022-11-30T19:21:44.150Z,-1.20
2022-11-30T19:24:13.927Z,-1.20
2022-11-30T19:26:42.238Z,-1.20
2022-11-30T19:29:12.097Z,-1.10
2022-11-30T19:31:40.183Z,-1.20
2022-11-30T19:34:12.637Z,-1.10
2022-11-30T19:36:41.370Z,-1.20
2022-11-30T19:39:11.026Z,-1.20
2022-11-30T19:41:40.709Z,-1.30
2022-11-30T19:44:13.675Z,-1.30
2022-11-30T19:46:41.994Z,-1.30
2022-11-30T19:49:11.285Z,-1.30
2022-11-30T19:51:39.483Z,-1.30
2022-11-30T19:54:07.724Z,-1.30
2022-11-30T19:56:36.060Z,-1.40
2022-11-30T19:59:06.319Z,-1.40
2022-11-30T20:01:35.327Z,-1.30
2022-11-30T20:04:04.005Z,-1.30
2022-11-30T20:06:33.233Z,-1.20
2022-11-30T20:09:01.985Z,-1.20
2022-11-30T20:11:33.118Z,-1.30
2022-11-30T20:14:01.404Z,-1.20
2022-11-30T20:16:30.975Z,-1.10
2022-11-30T20:19:00.852Z,-1.00
2022-11-30T20:21:29.756Z,-1.10
2022-11-30T20:23:59.348Z,-0.70
2022-11-30T20:26:30.052Z,-0.20
2022-11-30T20:29:00.509Z,-0.10
2022-11-30T20:31:29.848Z,-0.50
2022-11-30T20:33:59.553Z,-0.50
2022-11-30T20:36:27.628Z,-0.60
2022-11-30T20:38:55.972Z,-0.60
2022-11-30T20:41:24.843Z,-0.60
2022-11-30T20:43:53.438Z,-0.60
2022-11-30T20:46:22.698Z,-0.60
2022-11-30T20:48:51.380Z,-0.70
2022-11-30T20:51:30.739Z,-0.70
2022-11-30T20:54:00.419Z,-0.70
2022-11-30T20:56:28.624Z,-0.60
2022-11-30T20:58:56.720Z,-0.70
2022-11-30T21:01:24.871Z,-0.70
2022-11-30T21:03:53.370Z,-0.70
2022-11-30T21:06:22.931Z,-0.70
2022-11-30T21:08:51.018Z,-0.70
2022-11-30T21:11:20.212Z,-0.70
2022-11-30T21:13:51.895Z,-0.70
2022-11-30T21:16:26.908Z,-0.70
2022-11-30T21:18:56.440Z,-0.70
2022-11-30T21:21:27.148Z,-0.60
2022-11-30T21:23:55.523Z,-0.50
2022-11-30T21:26:24.598Z,-0.20
2022-11-30T21:28:54.049Z,-0.30
2022-11-30T21:31:27.274Z,-0.40
2022-11-30T21:33:55.553Z,-0.40
2022-11-30T21:36:24.028Z,-0.30
2022-11-30T21:39:04.125Z,-0.30
2022-11-30T21:41:33.745Z,-0.40
2022-11-30T21:44:02.049Z,-0.40
2022-11-30T21:46:30.401Z,-0.40
2022-11-30T21:48:58.729Z,-0.30
2022-11-30T21:51:28.788Z,-0.20
2022-11-30T21:53:59.172Z,-0.10
2022-11-30T21:56:27.875Z,-0.20
2022-11-30T21:58:56.199Z,-0.30
2022-11-30T22:01:25.761Z,-0.30
2022-11-30T22:03:55.963Z,-0.30
2022-11-30T22:06:24.824Z,-0.30
2022-11-30T22:08:57.073Z,-0.30
2022-11-30T22:11:26.748Z,-0.30
2022-11-30T22:13:55.488Z,-0.20
2022-11-30T22:16:24.553Z,-0.20
2022-11-30T22:18:53.461Z,-0.20
2022-11-30T22:21:22.838Z,-0.20
2022-11-30T22:23:54.025Z,-0.30
2022-11-30T22:26:22.803Z,-0.30
2022-11-30T22:28:53.952Z,-0.20
2022-11-30T22:31:22.873Z,-0.20
2022-11-30T22:33:51.325Z,-0.20
2022-11-30T22:36:20.361Z,-0.10
2022-11-30T22:38:49.075Z,-0.10
2022-11-30T22:41:18.081Z,-0.10
2022-11-30T22:43:47.295Z,-0.20
2022-11-30T22:46:18.399Z,-0.10
2022-11-30T22:48:49.801Z,-0.10
2022-11-30T22:51:21.513Z,-0.10
2022-11-30T22:53:51.375Z,0.00
2022-11-30T22:56:20.961Z,-0.10
2022-11-30T22:58:49.744Z,-0.10
2022-11-30T23:01:20.861Z,0.00
2022-11-30T23:03:49.658Z,0.00
2022-11-30T23:06:18.536Z,0.00
2022-11-30T23:08:47.227Z,0.10
2022-11-30T23:11:16.820Z,0.00
2022-11-30T23:13:44.874Z,0.10
2022-11-30T23:16:14.061Z,0.00
2022-11-30T23:18:44.363Z,0.00
2022-11-30T23:21:13.203Z,0.20
2022-11-30T23:23:41.690Z,0.50
2022-11-30T23:26:13.644Z,0.60
2022-11-30T23:28:42.313Z,0.50
2022-11-30T23:31:11.074Z,0.40
2022-11-30T23:34:00.662Z,0.30
2022-11-30T23:36:28.907Z,0.30
2022-11-30T23:38:58.007Z,0.20
2022-11-30T23:41:26.485Z,0.20
2022-11-30T23:43:54.987Z,0.20
2022-11-30T23:46:23.516Z,0.20
2022-11-30T23:48:51.744Z,0.20
2022-11-30T23:51:21.259Z,0.30
2022-11-30T23:53:49.345Z,0.30
2022-11-30T23:56:18.517Z,0.30
2022-11-30T23:58:48.686Z,0.30
